DLH2N EDDM-EDDB
Flight info
| Callsign | DLH2N |
|---|---|
| Flight time | 0h 41m |
| Altitude | 29000 |
| Route | AKINI1Q/08L AKINI Y104 MAMOR L132 RUDNO T203 TIVDA DCT ETVIS DCT NAVEK DCT GAVLI/N0395F300 T203 ATGUP ATGUP1R |
| Aircraft | A320/M-SDE2E3FGIJ1LORWXYZ/HB1 |
Departure
| Time | 2026-05-06 12:36 |
|---|---|
| Airport | Munich Airport (EDDM) |
Arrival
| Time | 2026-05-06 13:17 |
|---|---|
| Airport | Berlin Brandenburg Airport (EDDB) |
| Time | Latitude | Longitude | Altitude | Speed | Heading |
|---|---|---|---|---|---|
| 2026-05-06 12:03 | 48.35507 | 11.80007 | 1475 ft | 0 kts | 263° |
| 2026-05-06 12:26 | 48.35510 | 11.80040 | 1474 ft | 4 kts | 263° |
| 2026-05-06 12:26 | 48.35512 | 11.80072 | 1479 ft | 4 kts | 268° |
| 2026-05-06 12:26 | 48.35508 | 11.80109 | 1478 ft | 4 kts | 307° |
| 2026-05-06 12:27 | 48.35490 | 11.80127 | 1475 ft | 4 kts | 353° |
| 2026-05-06 12:27 | 48.35474 | 11.80129 | 1477 ft | 0 kts | 353° |
| 2026-05-06 12:29 | 48.35509 | 11.80123 | 1475 ft | 10 kts | 353° |
| 2026-05-06 12:30 | 48.35596 | 11.80108 | 1479 ft | 14 kts | 354° |
| 2026-05-06 12:30 | 48.35697 | 11.80083 | 1479 ft | 16 kts | 348° |
| 2026-05-06 12:30 | 48.35806 | 11.80049 | 1473 ft | 16 kts | 327° |
| 2026-05-06 12:30 | 48.35820 | 11.79882 | 1485 ft | 17 kts | 264° |
| 2026-05-06 12:31 | 48.35806 | 11.79695 | 1485 ft | 19 kts | 263° |
| 2026-05-06 12:31 | 48.35791 | 11.79491 | 1485 ft | 20 kts | 264° |
| 2026-05-06 12:31 | 48.35861 | 11.79384 | 1484 ft | 16 kts | 353° |
| 2026-05-06 12:31 | 48.35974 | 11.79337 | 1485 ft | 18 kts | 352° |
| 2026-05-06 12:32 | 48.36085 | 11.79283 | 1478 ft | 17 kts | 288° |
| 2026-05-06 12:32 | 48.36077 | 11.79097 | 1475 ft | 19 kts | 263° |
| 2026-05-06 12:32 | 48.36061 | 11.78896 | 1477 ft | 20 kts | 264° |
| 2026-05-06 12:32 | 48.36044 | 11.78678 | 1485 ft | 22 kts | 263° |
| 2026-05-06 12:33 | 48.36026 | 11.78444 | 1480 ft | 23 kts | 263° |
| 2026-05-06 12:33 | 48.36007 | 11.78194 | 1485 ft | 25 kts | 264° |
| 2026-05-06 12:33 | 48.35987 | 11.77930 | 1477 ft | 26 kts | 264° |
| 2026-05-06 12:33 | 48.35973 | 11.77706 | 1485 ft | 15 kts | 278° |
| 2026-05-06 12:34 | 48.36066 | 11.77659 | 1485 ft | 16 kts | 355° |
| 2026-05-06 12:34 | 48.36165 | 11.77742 | 1479 ft | 19 kts | 53° |
| 2026-05-06 12:34 | 48.36248 | 11.77909 | 1471 ft | 21 kts | 54° |
| 2026-05-06 12:34 | 48.36342 | 11.78097 | 1478 ft | 24 kts | 53° |
| 2026-05-06 12:35 | 48.36390 | 11.78250 | 1482 ft | 28 kts | 81° |
| 2026-05-06 12:35 | 48.36438 | 11.78859 | 1474 ft | 94 kts | 83° |
| 2026-05-06 12:35 | 48.36538 | 11.80148 | 1481 ft | 151 kts | 84° |
| 2026-05-06 12:35 | 48.36682 | 11.81882 | 1849 ft | 171 kts | 82° |
| 2026-05-06 12:36 | 48.36812 | 11.83641 | 2704 ft | 169 kts | 83° |
| 2026-05-06 12:36 | 48.36988 | 11.85447 | 3190 ft | 184 kts | 73° |
| 2026-05-06 12:36 | 48.37594 | 11.87262 | 3511 ft | 207 kts | 53° |
| 2026-05-06 12:36 | 48.38743 | 11.88699 | 4061 ft | 222 kts | 33° |
| 2026-05-06 12:37 | 48.40125 | 11.89980 | 4538 ft | 245 kts | 33° |
| 2026-05-06 12:37 | 48.41654 | 11.91368 | 5050 ft | 266 kts | 28° |
| 2026-05-06 12:37 | 48.43379 | 11.92559 | 5811 ft | 278 kts | 24° |
| 2026-05-06 12:37 | 48.45191 | 11.93706 | 6599 ft | 287 kts | 23° |
| 2026-05-06 12:38 | 48.47058 | 11.94850 | 7433 ft | 292 kts | 22° |
| 2026-05-06 12:38 | 48.48960 | 11.96010 | 8293 ft | 298 kts | 22° |
| 2026-05-06 12:38 | 48.50892 | 11.97198 | 9162 ft | 302 kts | 22° |
| 2026-05-06 12:38 | 48.52856 | 11.98419 | 9984 ft | 308 kts | 22° |
| 2026-05-06 12:39 | 48.54850 | 11.99668 | 10746 ft | 313 kts | 21° |
| 2026-05-06 12:39 | 48.56882 | 12.00947 | 11500 ft | 319 kts | 21° |
| 2026-05-06 12:39 | 48.58953 | 12.02253 | 12256 ft | 325 kts | 21° |
| 2026-05-06 12:39 | 48.61058 | 12.03582 | 13019 ft | 331 kts | 20° |
| 2026-05-06 12:40 | 48.63200 | 12.04937 | 13753 ft | 336 kts | 20° |
| 2026-05-06 12:40 | 48.65372 | 12.06316 | 14411 ft | 341 kts | 20° |
| 2026-05-06 12:40 | 48.67578 | 12.07718 | 15070 ft | 346 kts | 20° |
| 2026-05-06 12:40 | 48.69816 | 12.09137 | 15740 ft | 351 kts | 21° |
| 2026-05-06 12:41 | 48.72083 | 12.10573 | 16401 ft | 356 kts | 21° |
| 2026-05-06 12:41 | 48.74385 | 12.12034 | 17061 ft | 361 kts | 21° |
| 2026-05-06 12:41 | 48.76722 | 12.13560 | 17470 ft | 375 kts | 23° |
| 2026-05-06 12:41 | 48.79157 | 12.15261 | 17608 ft | 395 kts | 24° |
| 2026-05-06 12:42 | 48.81694 | 12.17108 | 17752 ft | 414 kts | 25° |
| 2026-05-06 12:42 | 48.84339 | 12.19067 | 17894 ft | 432 kts | 25° |
| 2026-05-06 12:42 | 48.87097 | 12.21111 | 18034 ft | 449 kts | 25° |
| 2026-05-06 12:42 | 48.89951 | 12.23209 | 18173 ft | 462 kts | 25° |
| 2026-05-06 12:43 | 48.92877 | 12.25308 | 18523 ft | 468 kts | 24° |
| 2026-05-06 12:43 | 48.95843 | 12.27394 | 18954 ft | 471 kts | 24° |
| 2026-05-06 12:43 | 48.98837 | 12.29482 | 19381 ft | 475 kts | 24° |
| 2026-05-06 12:43 | 49.01851 | 12.31579 | 19807 ft | 478 kts | 24° |
| 2026-05-06 12:44 | 49.04881 | 12.33697 | 20232 ft | 481 kts | 24° |
| 2026-05-06 12:44 | 49.07930 | 12.35841 | 20654 ft | 484 kts | 24° |
| 2026-05-06 12:44 | 49.10985 | 12.38005 | 21106 ft | 485 kts | 24° |
| 2026-05-06 12:44 | 49.14050 | 12.40185 | 21514 ft | 487 kts | 24° |
| 2026-05-06 12:45 | 49.17138 | 12.42382 | 21898 ft | 491 kts | 24° |
| 2026-05-06 12:45 | 49.20242 | 12.44594 | 22285 ft | 494 kts | 24° |
| 2026-05-06 12:45 | 49.26512 | 12.49074 | 23020 ft | 500 kts | 24° |
| 2026-05-06 12:46 | 49.29673 | 12.51336 | 23362 ft | 503 kts | 25° |
| 2026-05-06 12:46 | 49.32821 | 12.53701 | 23668 ft | 505 kts | 29° |
| 2026-05-06 12:46 | 49.35770 | 12.56628 | 23930 ft | 507 kts | 37° |
| 2026-05-06 12:46 | 49.38613 | 12.59899 | 24117 ft | 512 kts | 37° |
| 2026-05-06 12:47 | 49.41470 | 12.63191 | 24375 ft | 515 kts | 37° |
| 2026-05-06 12:47 | 49.44478 | 12.66202 | 24657 ft | 517 kts | 28° |
| 2026-05-06 12:47 | 49.47701 | 12.68666 | 24935 ft | 519 kts | 24° |
| 2026-05-06 12:47 | 49.50966 | 12.71056 | 25237 ft | 520 kts | 24° |
| 2026-05-06 12:48 | 49.54235 | 12.73465 | 25569 ft | 521 kts | 24° |
| 2026-05-06 12:48 | 49.57505 | 12.75887 | 25998 ft | 521 kts | 25° |
| 2026-05-06 12:48 | 49.60766 | 12.78309 | 26464 ft | 520 kts | 24° |
| 2026-05-06 12:48 | 49.64071 | 12.80548 | 26857 ft | 518 kts | 18° |
| 2026-05-06 12:49 | 49.67512 | 12.82122 | 27218 ft | 515 kts | 9° |
| 2026-05-06 12:49 | 49.71028 | 12.83032 | 27621 ft | 512 kts | 5° |
| 2026-05-06 12:49 | 49.74549 | 12.83820 | 28045 ft | 511 kts | 5° |
| 2026-05-06 12:49 | 49.78062 | 12.84624 | 28460 ft | 510 kts | 5° |
| 2026-05-06 12:50 | 49.81569 | 12.85440 | 28879 ft | 509 kts | 5° |
| 2026-05-06 12:50 | 49.85072 | 12.86264 | 29288 ft | 509 kts | 5° |
| 2026-05-06 12:50 | 49.88572 | 12.87085 | 29679 ft | 509 kts | 5° |
| 2026-05-06 12:50 | 49.92070 | 12.87902 | 29784 ft | 509 kts | 5° |
| 2026-05-06 12:51 | 49.95574 | 12.88719 | 29797 ft | 509 kts | 5° |
| 2026-05-06 12:51 | 50.02569 | 12.90341 | 29803 ft | 508 kts | 5° |
| 2026-05-06 12:52 | 50.09556 | 12.91964 | 29809 ft | 508 kts | 5° |
| 2026-05-06 12:52 | 50.16543 | 12.93597 | 29819 ft | 507 kts | 5° |
| 2026-05-06 12:53 | 50.23514 | 12.95231 | 29829 ft | 506 kts | 5° |
| 2026-05-06 12:53 | 50.30345 | 12.97917 | 29816 ft | 510 kts | 20° |
| 2026-05-06 12:54 | 50.36744 | 13.02785 | 29770 ft | 512 kts | 25° |
| 2026-05-06 12:54 | 50.43099 | 13.07829 | 29758 ft | 513 kts | 25° |
| 2026-05-06 12:55 | 50.49465 | 13.12908 | 29747 ft | 514 kts | 25° |
| 2026-05-06 12:55 | 50.55836 | 13.17996 | 29763 ft | 514 kts | 25° |
| 2026-05-06 12:56 | 50.62202 | 13.23103 | 29768 ft | 514 kts | 25° |
| 2026-05-06 12:56 | 50.68559 | 13.28233 | 29775 ft | 513 kts | 25° |
| 2026-05-06 12:57 | 50.74913 | 13.33373 | 29770 ft | 513 kts | 25° |
| 2026-05-06 12:57 | 50.81261 | 13.38513 | 29785 ft | 513 kts | 25° |
| 2026-05-06 12:58 | 50.87607 | 13.43684 | 29783 ft | 513 kts | 25° |
| 2026-05-06 12:58 | 50.94101 | 13.48281 | 29769 ft | 509 kts | 13° |
| 2026-05-06 12:58 | 50.97549 | 13.49372 | 29596 ft | 502 kts | 0° |
| 2026-05-06 12:59 | 51.01003 | 13.49222 | 29311 ft | 493 kts | 346° |
| 2026-05-06 12:59 | 51.04367 | 13.48229 | 29036 ft | 492 kts | 343° |
| 2026-05-06 12:59 | 51.07727 | 13.47170 | 28754 ft | 493 kts | 343° |
| 2026-05-06 12:59 | 51.11094 | 13.46097 | 28481 ft | 494 kts | 343° |
| 2026-05-06 13:00 | 51.14461 | 13.45017 | 28209 ft | 494 kts | 343° |
| 2026-05-06 13:00 | 51.17828 | 13.43934 | 27930 ft | 494 kts | 343° |
| 2026-05-06 13:00 | 51.21201 | 13.42852 | 27680 ft | 494 kts | 343° |
| 2026-05-06 13:00 | 51.24578 | 13.41774 | 27149 ft | 495 kts | 344° |
| 2026-05-06 13:01 | 51.27954 | 13.40701 | 26408 ft | 495 kts | 344° |
| 2026-05-06 13:01 | 51.31330 | 13.39628 | 25644 ft | 494 kts | 344° |
| 2026-05-06 13:01 | 51.34703 | 13.38549 | 24900 ft | 494 kts | 344° |
| 2026-05-06 13:01 | 51.38068 | 13.37462 | 24154 ft | 493 kts | 344° |
| 2026-05-06 13:02 | 51.41418 | 13.36374 | 23362 ft | 488 kts | 345° |
| 2026-05-06 13:02 | 51.44728 | 13.35300 | 22430 ft | 482 kts | 345° |
| 2026-05-06 13:02 | 51.47999 | 13.34242 | 21528 ft | 477 kts | 345° |
| 2026-05-06 13:02 | 51.51231 | 13.33198 | 20761 ft | 470 kts | 345° |
| 2026-05-06 13:03 | 51.54417 | 13.32169 | 20013 ft | 464 kts | 345° |
| 2026-05-06 13:03 | 51.57566 | 13.31149 | 19241 ft | 459 kts | 345° |
| 2026-05-06 13:03 | 51.60685 | 13.30131 | 18489 ft | 455 kts | 345° |
| 2026-05-06 13:03 | 51.63763 | 13.29124 | 17483 ft | 448 kts | 345° |
| 2026-05-06 13:04 | 51.66795 | 13.28135 | 16386 ft | 442 kts | 345° |
| 2026-05-06 13:04 | 51.69782 | 13.27160 | 15367 ft | 434 kts | 345° |
| 2026-05-06 13:04 | 51.72718 | 13.26196 | 14393 ft | 428 kts | 345° |
| 2026-05-06 13:04 | 51.75631 | 13.25234 | 13755 ft | 425 kts | 345° |
| 2026-05-06 13:05 | 51.78510 | 13.24287 | 13105 ft | 419 kts | 345° |
| 2026-05-06 13:05 | 51.81334 | 13.23364 | 12505 ft | 411 kts | 345° |
| 2026-05-06 13:05 | 51.84111 | 13.22454 | 11969 ft | 403 kts | 345° |
| 2026-05-06 13:05 | 51.86824 | 13.21561 | 11459 ft | 390 kts | 345° |
| 2026-05-06 13:06 | 51.89406 | 13.20712 | 11115 ft | 369 kts | 345° |
| 2026-05-06 13:06 | 51.91877 | 13.19898 | 10867 ft | 357 kts | 345° |
| 2026-05-06 13:06 | 51.94269 | 13.19109 | 10621 ft | 345 kts | 345° |
| 2026-05-06 13:06 | 51.96595 | 13.18336 | 10304 ft | 338 kts | 345° |
| 2026-05-06 13:07 | 51.98872 | 13.17579 | 10034 ft | 329 kts | 345° |
| 2026-05-06 13:07 | 52.01089 | 13.16843 | 9789 ft | 321 kts | 345° |
| 2026-05-06 13:07 | 52.03259 | 13.16121 | 9493 ft | 316 kts | 344° |
| 2026-05-06 13:07 | 52.05392 | 13.15415 | 9181 ft | 310 kts | 344° |
| 2026-05-06 13:08 | 52.07486 | 13.14726 | 8873 ft | 304 kts | 344° |
| 2026-05-06 13:08 | 52.09539 | 13.14047 | 8548 ft | 298 kts | 344° |
| 2026-05-06 13:08 | 52.11529 | 13.13389 | 8194 ft | 288 kts | 344° |
| 2026-05-06 13:08 | 52.13479 | 13.12738 | 7820 ft | 286 kts | 344° |
| 2026-05-06 13:09 | 52.15428 | 13.12081 | 7439 ft | 285 kts | 344° |
| 2026-05-06 13:09 | 52.17327 | 13.11441 | 7060 ft | 272 kts | 344° |
| 2026-05-06 13:09 | 52.19143 | 13.10831 | 6703 ft | 261 kts | 344° |
| 2026-05-06 13:09 | 52.20892 | 13.10243 | 6338 ft | 252 kts | 344° |
| 2026-05-06 13:10 | 52.22579 | 13.09675 | 5954 ft | 244 kts | 344° |
| 2026-05-06 13:10 | 52.24219 | 13.09126 | 5592 ft | 236 kts | 345° |
| 2026-05-06 13:10 | 52.25826 | 13.08737 | 5299 ft | 235 kts | 1° |
| 2026-05-06 13:10 | 52.27303 | 13.09744 | 5100 ft | 233 kts | 44° |
| 2026-05-06 13:11 | 52.28098 | 13.11997 | 4878 ft | 230 kts | 70° |
| 2026-05-06 13:11 | 52.28630 | 13.14458 | 4576 ft | 230 kts | 69° |
| 2026-05-06 13:11 | 52.29192 | 13.16885 | 4249 ft | 225 kts | 68° |
| 2026-05-06 13:11 | 52.29752 | 13.19215 | 3954 ft | 216 kts | 68° |
| 2026-05-06 13:12 | 52.30294 | 13.21460 | 3656 ft | 208 kts | 67° |
| 2026-05-06 13:12 | 52.30812 | 13.23611 | 3413 ft | 197 kts | 68° |
| 2026-05-06 13:12 | 52.31297 | 13.25630 | 3147 ft | 185 kts | 66° |
| 2026-05-06 13:12 | 52.31761 | 13.27560 | 2892 ft | 180 kts | 66° |
| 2026-05-06 13:13 | 52.32205 | 13.29410 | 2644 ft | 168 kts | 67° |
| 2026-05-06 13:13 | 52.32615 | 13.31119 | 2430 ft | 155 kts | 67° |
| 2026-05-06 13:13 | 52.32992 | 13.32692 | 2246 ft | 141 kts | 66° |
| 2026-05-06 13:13 | 52.33346 | 13.34166 | 2048 ft | 137 kts | 66° |
| 2026-05-06 13:14 | 52.33690 | 13.35605 | 1859 ft | 134 kts | 66° |
| 2026-05-06 13:14 | 52.34031 | 13.37030 | 1680 ft | 134 kts | 67° |
| 2026-05-06 13:14 | 52.34370 | 13.38450 | 1470 ft | 134 kts | 67° |
| 2026-05-06 13:14 | 52.34710 | 13.39871 | 1288 ft | 134 kts | 66° |
| 2026-05-06 13:15 | 52.35047 | 13.41292 | 1089 ft | 133 kts | 65° |
| 2026-05-06 13:15 | 52.35388 | 13.42703 | 915 ft | 134 kts | 65° |
| 2026-05-06 13:15 | 52.35723 | 13.44117 | 747 ft | 133 kts | 65° |
| 2026-05-06 13:15 | 52.35944 | 13.45045 | 657 ft | 133 kts | 65° |
| 2026-05-06 13:16 | 52.36276 | 13.46450 | 423 ft | 132 kts | 65° |
| 2026-05-06 13:16 | 52.36610 | 13.47845 | 292 ft | 131 kts | 66° |
| 2026-05-06 13:16 | 52.36941 | 13.49223 | 157 ft | 123 kts | 68° |
| 2026-05-06 13:16 | 52.37156 | 13.50139 | 155 ft | 53 kts | 68° |
| 2026-05-06 13:17 | 52.37267 | 13.50601 | 155 ft | 30 kts | 69° |
| 2026-05-06 13:17 | 52.37306 | 13.50929 | 155 ft | 30 kts | 91° |
| 2026-05-06 13:17 | 52.37286 | 13.51205 | 155 ft | 15 kts | 98° |
| 2026-05-06 13:17 | 52.37277 | 13.51299 | 155 ft | 7 kts | 99° |
| 2026-05-06 13:18 | 52.37252 | 13.51355 | 155 ft | 6 kts | 156° |
| 2026-05-06 13:18 | 52.37207 | 13.51321 | 155 ft | 13 kts | 231° |
| 2026-05-06 13:18 | 52.37158 | 13.51135 | 155 ft | 20 kts | 249° |
| 2026-05-06 13:18 | 52.37105 | 13.50911 | 155 ft | 22 kts | 249° |
| 2026-05-06 13:19 | 52.37046 | 13.50667 | 155 ft | 24 kts | 249° |
| 2026-05-06 13:19 | 52.36983 | 13.50399 | 155 ft | 26 kts | 249° |
| 2026-05-06 13:19 | 52.36922 | 13.50143 | 155 ft | 17 kts | 245° |
| 2026-05-06 13:19 | 52.36837 | 13.50152 | 155 ft | 13 kts | 159° |
| 2026-05-06 13:20 | 52.36757 | 13.50202 | 155 ft | 12 kts | 159° |
| 2026-05-06 13:20 | 52.36684 | 13.50247 | 155 ft | 11 kts | 159° |
| 2026-05-06 13:20 | 52.36617 | 13.50290 | 155 ft | 10 kts | 159° |
| 2026-05-06 13:20 | 52.36589 | 13.50361 | 155 ft | 8 kts | 63° |
| 2026-05-06 13:21 | 52.36610 | 13.50431 | 155 ft | 5 kts | 68° |
| 2026-05-06 13:21 | 52.36614 | 13.50450 | 155 ft | 0 kts | 69° |